• Join FlightAware (Why Join?)
  • Login
  • US Flag 
02:29PM EST


 

Airport Tracker/Info


-or-


 

Live Flight TrackerFlight Track Log ✈ AAY846 ✈ 07-Feb-2014 ✈ KPIE - KPIA

Flight Track Log - Related Links

Times and Time Zones

All times are in EST time to prevent confusion due to time zone crossing. See the AAY846 flight status page for this flight to view local times or setup timezone preferences in your user account.

Time Position Orientation Groundspeed Altitude Reporting Facility
EST Latitude Longitude Course Direction KTS MPH feet Rate Location/Type
08:10AM 27.9333 -82.6833 360° North 167 192 800  Level Tampa TRACON
08:11AM 27.9833 -82.6833 360° North 216 249 2,300 1,800 Climbing Tampa TRACON
08:11AM 28.0333 -82.6500 30° Northeast 278 320 4,300 2,580 Climbing Tampa TRACON
08:14AM 28.2167 -82.6900 349° North 285 328 11,200 2,340 Climbing Jacksonville Center
08:15AM 28.2981 -82.7322 335° Northwest 297 342 12,600 1,320 Climbing Jacksonville Center
08:16AM 28.3942 -82.7817 336° Northwest 334 384 13,900 2,040 Climbing Jacksonville Center
08:17AM 28.4964 -82.8358 335° Northwest 378 435 16,700 2,040 Climbing Jacksonville Center
08:18AM 28.5986 -82.8903 335° Northwest 398 458 18,000 1,680 Climbing Jacksonville Center
08:19AM 28.7175 -82.9542 335° Northwest 410 472 20,100 1,860 Climbing Jacksonville Center
08:20AM 28.8281 -83.0158 334° Northwest 422 486 21,800 1,800 Climbing Jacksonville Center
08:21AM 28.9408 -83.0728 336° Northwest 430 495 23,700 1,800 Climbing Jacksonville Center
08:22AM 29.0556 -83.1300 336° Northwest 441 507 25,500 1,980 Climbing Jacksonville Center
08:23AM 29.1722 -83.1828 338° Northwest 441 507 27,700 1,860 Climbing Jacksonville Center
08:24AM 29.2828 -83.2331 338° Northwest 435 501 29,300 1,440 Climbing Jacksonville Center
08:25AM 29.3911 -83.2858 337° Northwest 430 495 30,600 1,260 Climbing Jacksonville Center
08:26AM 29.5036 -83.3364 339° North 430 495 31,900 1,200 Climbing Jacksonville Center
08:27AM 29.6078 -83.3869 337° Northwest 424 488 33,000 960 Climbing Jacksonville Center
08:28AM 29.7164 -83.4378 338° Northwest 414 476 33,900 480 Climbing Jacksonville Center
08:29AM 29.8122 -83.4814 338° Northwest 414 476 34,000  Climbing Jacksonville Center
08:30AM 29.9206 -83.5325 338° Northwest 414 476 34,000  Level Jacksonville Center
08:31AM 30.0308 -83.5858 337° Northwest 419 482 34,000  Level Jacksonville Center
08:32AM 30.1369 -83.6347 338° Northwest 414 476 34,000 -60 Level Jacksonville Center
08:33AM 30.2472 -83.6886 337° Northwest 414 476 33,900  Descending Jacksonville Center
08:34AM 30.3556 -83.7375 339° North 414 476 34,000  Climbing Jacksonville Center
08:35AM 30.4639 -83.7892 338° Northwest 414 476 34,000  Level Jacksonville Center
08:36AM 30.5825 -83.8458 338° Northwest 409 471 34,000  Level Jacksonville Center
08:37AM 30.6906 -83.8975 338° Northwest 409 471 34,000  Level Jacksonville Center
08:38AM 30.8008 -83.9494 338° Northwest 414 476 34,000  Level Jacksonville Center
08:39AM 30.9089 -84.0039 337° Northwest 414 476 34,000  Level Jacksonville Center
08:40AM 31.0169 -84.0586 337° Northwest 414 476 34,000  Level Jacksonville Center
08:41AM 31.1125 -84.1083 336° Northwest 414 476 34,000  Level Jacksonville Center
08:42AM 31.2228 -84.1656 336° Northwest 414 476 34,000  Level Jacksonville Center
08:43AM 31.3308 -84.2206 337° Northwest 414 476 34,000  Level Jacksonville Center
08:44AM 31.4367 -84.2756 336° Northwest 414 476 34,000  Level Jacksonville Center
08:45AM 31.5444 -84.3308 336° Northwest 419 482 34,000  Level Jacksonville Center
08:47AM 31.8003 -84.4617 337° Northwest 417 480 34,000  Level Atlanta Center
08:48AM 31.9086 -84.5208 335° Northwest 417 480 34,000  Level Atlanta Center
08:49AM 32.0250 -84.5828 336° Northwest 417 480 34,000  Level Atlanta Center
08:50AM 32.1292 -84.6372 336° Northwest 417 480 34,000  Level Atlanta Center
08:51AM 32.2375 -84.6919 337° Northwest 417 480 34,000  Level Atlanta Center
08:52AM 32.3436 -84.7519 334° Northwest 422 486 34,000  Level Atlanta Center
08:53AM 32.4475 -84.8067 336° Northwest 417 480 34,000  Level Atlanta Center
08:54AM 32.5456 -84.8519 339° North 417 480 34,000  Level Atlanta Center
08:55AM 32.6472 -84.9097 334° Northwest 417 480 34,000  Level Atlanta Center
08:56AM 32.7514 -84.9625 337° Northwest 412 474 34,000  Level Atlanta Center
08:57AM 32.8719 -85.0356 333° Northwest 424 488 34,000  Level Atlanta Center
08:58AM 32.9778 -85.0936 335° Northwest 418 481 34,000  Level Atlanta Center
08:59AM 33.0817 -85.1469 337° Northwest 411 473 34,000  Level Atlanta Center
09:00AM 33.1836 -85.2006 336° Northwest 411 473 34,000  Level Atlanta Center
09:01AM 33.2914 -85.2567 336° Northwest 411 473 34,000  Level Atlanta Center
09:02AM 33.3953 -85.3153 335° Northwest 411 473 34,000  Level Atlanta Center
09:03AM 33.4886 -85.3664 335° Northwest 416 479 34,000  Level Atlanta Center
09:04AM 33.5944 -85.4231 336° Northwest 411 473 34,000  Level Atlanta Center
09:05AM 33.7003 -85.4794 336° Northwest 411 473 34,000  Level Atlanta Center
09:06AM 33.8039 -85.5364 335° Northwest 411 473 34,000  Level Atlanta Center
09:07AM 33.9117 -85.5933 336° Northwest 417 480 34,000  Level Atlanta Center
09:08AM 34.0278 -85.6581 335° Northwest 412 474 34,000  Level Atlanta Center
09:09AM 34.1314 -85.7178 334° Northwest 412 474 34,000  Level Atlanta Center
09:10AM 34.2369 -85.7725 337° Northwest 417 480 34,000  Level Atlanta Center
09:11AM 34.3281 -85.8222 336° Northwest 417 480 34,000  Level Atlanta Center
09:12AM 34.4339 -85.8797 336° Northwest 404 465 34,000  Level Atlanta Center
09:13AM 34.5394 -85.9375 336° Northwest 404 465 34,000  Level Atlanta Center
09:14AM 34.6428 -85.9981 334° Northwest 404 465 34,000  Level Atlanta Center
09:15AM 34.7483 -86.0561 336° Northwest 409 471 34,000  Level Atlanta Center
09:16AM 34.8558 -86.1169 335° Northwest 415 478 34,000  Level Atlanta Center
09:18AM 35.0253 -86.2150 335° Northwest 417 480 34,000  Level Memphis Center
09:19AM 35.1214 -86.2697 335° Northwest 411 473 34,000  Level Memphis Center
09:20AM 35.2428 -86.3389 335° Northwest 408 470 34,000  Level Memphis Center
09:21AM 35.3469 -86.3992 335° Northwest 408 470 34,000  Level Memphis Center
09:22AM 35.4519 -86.4581 335° Northwest 409 471 34,000  Level Memphis Center
09:23AM 35.5561 -86.5200 334° Northwest 411 473 34,000  Level Memphis Center
09:24AM 35.6614 -86.5797 335° Northwest 412 474 34,000  Level Memphis Center
09:25AM 35.7647 -86.6397 335° Northwest 409 471 34,000  Level Memphis Center
09:26AM 35.8672 -86.6989 335° Northwest 404 465 34,000  Level Memphis Center
09:27AM 35.9689 -86.7583 335° Northwest 401 461 34,000  Level Memphis Center
09:28AM 36.0708 -86.8181 335° Northwest 400 460 34,000  Level Memphis Center
09:29AM 36.1897 -86.8875 335° Northwest 399 459 34,000  Level Memphis Center
09:30AM 36.2933 -86.9472 335° Northwest 397 457 34,000  Level Memphis Center
09:31AM 36.3792 -86.9972 335° Northwest 395 455 34,000  Level Memphis Center
09:32AM 36.4992 -87.0683 335° Northwest 399 459 34,000  Level Memphis Center
09:33AM 36.6014 -87.1289 335° Northwest 401 461 34,000  Level Memphis Center
09:34AM 36.7050 -87.1903 335° Northwest 404 465 34,000  Level Memphis Center
09:35AM 36.8078 -87.2525 334° Northwest 406 467 34,000  Level Memphis Center
09:36AM 36.9111 -87.3142 334° Northwest 406 467 34,000  Level Memphis Center
09:37AM 37.0144 -87.3753 335° Northwest 406 467 34,000  Level Memphis Center
09:38AM 37.1172 -87.4375 334° Northwest 406 467 34,000  Level Memphis Center
09:39AM 37.2217 -87.5006 334° Northwest 411 473 34,000  Level Indianapolis Center
09:40AM 37.3258 -87.5633 334° Northwest 410 472 34,000  Level Indianapolis Center
09:41AM 37.4294 -87.6247 335° Northwest 409 471 34,000  Level Indianapolis Center
09:42AM 37.5319 -87.6897 333° Northwest 408 470 34,000  Level Indianapolis Center
09:43AM 37.6347 -87.7517 334° Northwest 407 468 34,000  Level Indianapolis Center
09:44AM 37.7364 -87.8142 334° Northwest 403 464 34,000  Level Indianapolis Center
09:46AM 37.8311 -87.8728 334° Northwest 404 465 34,000  Level Indianapolis Center
09:47AM 37.9325 -87.9347 334° Northwest 402 463 34,000  Level Indianapolis Center
09:48AM 38.0544 -88.0092 334° Northwest 401 461 34,000  Level Indianapolis Center
09:49AM 38.1556 -88.0728 334° Northwest 402 463 34,000  Level Indianapolis Center
09:50AM 38.2581 -88.1367 334° Northwest 402 463 34,000  Level Kansas City Center
09:51AM 38.3600 -88.1994 334° Northwest 402 463 34,000 -840 Level Kansas City Center
09:52AM 38.4622 -88.2642 334° Northwest 405 466 32,400 -1,620 Descending Kansas City Center
09:53AM 38.5656 -88.3311 333° Northwest 408 470 30,700 -1,680 Descending Kansas City Center
09:54AM 38.6700 -88.3944 335° Northwest 410 472 29,000 -1,680 Descending Kansas City Center
09:55AM 38.7747 -88.4625 333° Northwest 415 478 27,300 -1,680 Descending Kansas City Center
09:56AM 38.8814 -88.5303 334° Northwest 421 484 25,600 -1,680 Descending Kansas City Center
09:57AM 38.9875 -88.5958 334° Northwest 421 484 23,900 -1,680 Descending Kansas City Center
09:58AM 39.0903 -88.6619 333° Northwest 416 479 22,200 -1,680 Descending Kansas City Center
09:59AM 39.1919 -88.7267 334° Northwest 413 475 20,500 -1,680 Descending Kansas City Center
10:00AM 39.2900 -88.7892 334° Northwest 408 470 18,800 -1,500 Descending Kansas City Center
10:01AM 39.4019 -88.8614 334° Northwest 390 449 17,400 -1,140 Descending Kansas City Center
10:02AM 39.4814 -88.9136 333° Northwest 379 436 16,500 -1,080 Descending Kansas City Center
10:03AM 39.5869 -88.9819 333° Northwest 358 412 15,300 -1,080 Descending Kansas City Center
10:04AM 39.6717 -89.0358 334° Northwest 345 397 14,300 -1,020 Descending Kansas City Center
10:05AM 39.7553 -89.0900 334° Northwest 338 389 13,300 -1,020 Descending Kansas City Center
10:06AM 39.8381 -89.1450 333° Northwest 335 386 12,300 -660 Descending Kansas City Center
10:07AM 39.9200 -89.1983 333° Northwest 331 381 12,000 -180 Descending Kansas City Center
10:08AM 40.0019 -89.2514 334° Northwest 329 379 12,000  Level Kansas City Center
10:09AM 40.0806 -89.3039 333° Northwest 322 371 12,000  Level Kansas City Center
10:10AM 40.1917 -89.3772 333° Northwest 321 369 12,000 -180 Level Chicago Center
10:11AM 40.2772 -89.4131 342° North 324 373 11,600 -840 Descending Chicago Center
10:12AM 40.3461 -89.4444 341° North 274 315 10,300 -2,220 Descending Chicago Center
10:13AM 40.4100 -89.4819 336° Northwest 249 287 7,100 -2,580 Descending Chicago Center
10:15AM 40.4744 -89.5189 336° Northwest 254 292 5,100 -2,220 Descending Chicago Center
10:16AM 40.5456 -89.5592 337° Northwest 241 277 2,600 -1,320 Descending Chicago Center
10:17AM 40.6028 -89.5908 337° Northwest 233 268 2,400 -300 Descending Chicago Center
10:18AM 40.6289 -89.6339 309° West 180 207 2,000 -780 Descending Chicago Center
10:19AM 40.6517 -89.6744 307° West 152 175 900 -720 Descending Chicago Center
10:20AM 40.6717 -89.7108 306° West 146 168 600 -300 Descending Chicago Center